Time;durP1;ratioP1;P1;durP2;ratioP2;P2;SDS_P1;SDS_P2;PMS_P1;PMS_P2;Temp;Humidity;BMP_temperature;BMP_pressure;BME280_temperature;BME280_humidity;BME280_pressure;Samples;Min_cycle;Max_cycle;Signal;HPM_P1;HPM_P2
2021/11/30 00:01:44;;;;;;;9.23;5.15;;;;;;;5.62;100.00;91429.97;5054646;28;20048;-83
2021/11/30 00:04:11;;;;;;;6.97;3.15;;;;;;;5.41;100.00;91396.41;5055013;28;20052;-83
2021/11/30 00:06:39;;;;;;;9.55;3.90;;;;;;;5.66;100.00;91427.72;5054742;28;20131;-84
2021/11/30 00:10:43;;;;;;;4.22;2.28;;;;;;;5.67;100.00;91432.63;5054716;28;20121;-84
2021/11/30 00:12:14;;;;;;;4.85;2.20;;;;;;;5.50;100.00;91424.09;5059061;28;20446;-84
2021/11/30 00:14:43;;;;;;;6.28;2.10;;;;;;;5.41;100.00;91401.50;5068726;28;20139;-84
2021/11/30 00:17:12;;;;;;;2.88;1.65;;;;;;;5.50;100.00;91406.28;5058584;28;20508;-83
2021/11/30 00:19:40;;;;;;;5.22;1.92;;;;;;;5.56;100.00;91429.06;5058459;28;20045;-84
2021/11/30 00:22:08;;;;;;;3.55;1.40;;;;;;;5.55;100.00;91427.53;5058596;28;20583;-83
2021/11/30 00:24:36;;;;;;;4.25;1.40;;;;;;;5.55;100.00;91430.06;5058570;28;20098;-83
2021/11/30 00:27:05;;;;;;;3.40;1.45;;;;;;;5.57;100.00;91428.09;5058196;28;20048;-83
2021/11/30 00:29:32;;;;;;;3.00;1.50;;;;;;;5.57;100.00;91419.66;5058457;28;20055;-83
2021/11/30 00:32:00;;;;;;;3.00;1.60;;;;;;;5.66;100.00;91425.19;5058803;28;20404;-83
2021/11/30 00:34:28;;;;;;;3.75;1.70;;;;;;;5.67;100.00;91430.06;5058074;28;20060;-82
2021/11/30 00:36:55;;;;;;;6.47;2.83;;;;;;;5.64;100.00;91424.66;5058429;28;20423;-83
2021/11/30 00:39:22;;;;;;;4.95;3.55;;;;;;;5.53;100.00;91421.09;5058239;28;20048;-83
2021/11/30 00:41:51;;;;;;;6.95;3.42;;;;;;;5.34;100.00;91399.06;5057750;28;20060;-84
2021/11/30 00:44:21;;;;;;;5.45;3.40;;;;;;;5.32;100.00;91428.31;5057158;28;20496;-83
2021/11/30 00:46:49;;;;;;;7.82;4.90;;;;;;;5.05;100.00;91414.22;5057170;28;20126;-83
2021/11/30 00:49:16;;;;;;;8.88;5.18;;;;;;;5.13;100.00;91433.50;5058335;28;20135;-82
2021/11/30 00:51:47;;;;;;;12.93;7.20;;;;;;;4.66;100.00;91375.69;5057823;28;20131;-82
2021/11/30 00:54:16;;;;;;;12.55;7.47;;;;;;;4.92;100.00;91424.63;5058347;28;20386;-83
2021/11/30 00:56:47;;;;;;;16.15;10.18;;;;;;;4.90;100.00;91429.13;5057618;28;20073;-83
2021/11/30 00:59:14;;;;;;;12.70;8.60;;;;;;;4.90;100.00;91439.31;5057814;28;20053;-84
2021/11/30 01:01:41;;;;;;;8.45;5.20;;;;;;;4.74;100.00;91438.97;5057811;28;20048;-83
2021/11/30 01:04:10;;;;;;;8.20;5.22;;;;;;;4.64;100.00;91436.94;5057783;28;20447;-83
2021/11/30 01:06:37;;;;;;;6.25;3.70;;;;;;;4.36;100.00;91404.47;5057922;28;20053;-85
2021/11/30 01:09:06;;;;;;;8.43;5.43;;;;;;;4.52;100.00;91434.38;5057280;28;20045;-82
2021/11/30 01:11:33;;;;;;;9.93;6.47;;;;;;;4.16;100.00;91389.50;5056255;28;20049;-86
2021/11/30 01:14:00;;;;;;;8.20;5.93;;;;;;;4.38;100.00;91427.91;5056800;28;20060;-87
2021/11/30 01:16:27;;;;;;;9.15;5.57;;;;;;;4.19;100.00;91409.38;5056408;28;20440;-86
2021/11/30 01:18:54;;;;;;;10.80;6.05;;;;;;;4.31;100.00;91435.63;5056817;28;20055;-82
2021/11/30 01:21:21;;;;;;;5.60;3.35;;;;;;;3.86;100.00;91407.03;5055850;28;20484;-81
2021/11/30 01:23:48;;;;;;;5.90;2.90;;;;;;;3.72;100.00;91436.88;5056611;28;20301;-81
2021/11/30 01:26:16;;;;;;;5.18;2.35;;;;;;;3.55;100.00;91440.94;5056421;28;20049;-81
2021/11/30 01:28:43;;;;;;;3.88;2.03;;;;;;;3.36;100.00;91442.69;5056493;28;20048;-83
2021/11/30 01:31:10;;;;;;;3.33;1.98;;;;;;;3.04;100.00;91420.72;5056583;28;20048;-82
2021/11/30 01:33:37;;;;;;;2.95;1.88;;;;;;;3.02;100.00;91422.69;5056554;28;20041;-81
2021/11/30 01:36:05;;;;;;;3.25;1.60;;;;;;;2.64;100.00;91430.16;5055924;28;20056;-83
2021/11/30 01:38:32;;;;;;;3.72;2.45;;;;;;;2.09;100.00;91411.16;5056389;28;20469;-83
2021/11/30 01:41:01;;;;;;;4.55;2.80;;;;;;;1.73;100.00;91410.72;5056249;28;20550;-83
2021/11/30 01:43:38;;;;;;;2.95;1.83;;;;;;;1.78;100.00;91443.06;5056150;28;20051;-83
2021/11/30 01:46:08;;;;;;;2.10;1.25;;;;;;;1.37;100.00;91444.13;5055728;28;20041;-83
2021/11/30 01:51:17;;;;;;;1.42;0.70;;;;;;;0.84;100.00;91460.88;5038494;28;20064;-82
2021/11/30 01:53:44;;;;;;;1.20;0.68;;;;;;;0.89;100.00;91471.94;5056095;28;20400;-81
2021/11/30 01:56:11;;;;;;;1.05;0.47;;;;;;;0.93;100.00;91469.84;5055808;28;20056;-80
2021/11/30 01:58:39;;;;;;;5.72;4.60;;;;;;;1.20;100.00;91467.28;5055774;28;20072;-80
2021/11/30 02:01:07;;;;;;;10.38;9.02;;;;;;;1.62;100.00;91479.69;5055674;28;20057;-80
2021/11/30 02:03:34;;;;;;;8.73;6.95;;;;;;;1.67;100.00;91444.44;5055615;28;20049;-80
2021/11/30 02:06:01;;;;;;;4.03;3.50;;;;;;;1.93;100.00;91473.19;5056024;28;20064;-81
2021/11/30 02:08:28;;;;;;;1.77;1.17;;;;;;;1.67;100.00;91482.41;5015959;28;1163968;-81
2021/11/30 02:10:56;;;;;;;1.00;0.45;;;;;;;1.24;100.00;91462.63;5067771;28;20404;-84
2021/11/30 02:13:24;;;;;;;1.05;0.50;;;;;;;1.10;100.00;91447.47;5066197;28;20048;-85
2021/11/30 02:15:59;;;;;;;1.00;0.57;;;;;;;0.91;100.00;91497.03;5066821;28;20054;-82
2021/11/30 02:18:27;;;;;;;1.17;0.40;;;;;;;0.30;100.00;91470.88;5066316;28;20040;-82
2021/11/30 02:20:58;;;;;;;0.88;0.45;;;;;;;0.29;100.00;91507.22;5066106;28;20056;-82
2021/11/30 02:23:33;;;;;;;1.38;0.70;;;;;;;0.24;100.00;91515.38;5066122;28;20063;-82
2021/11/30 02:26:02;;;;;;;0.90;0.60;;;;;;;0.22;100.00;91517.28;5065907;28;20044;-82
2021/11/30 02:28:29;;;;;;;1.00;0.50;;;;;;;-0.09;100.00;91518.53;5065597;28;20058;-82
2021/11/30 02:30:56;;;;;;;0.93;0.52;;;;;;;-0.25;100.00;91512.03;5066069;28;20052;-81
2021/11/30 02:33:23;;;;;;;1.13;0.65;;;;;;;-0.25;100.00;91522.13;5065155;28;20051;-81
2021/11/30 02:35:51;;;;;;;1.75;0.65;;;;;;;-0.36;100.00;91516.66;5066051;28;20036;-81
2021/11/30 02:38:19;;;;;;;1.42;0.70;;;;;;;-0.41;100.00;91516.41;5065801;28;20049;-80
2021/11/30 02:40:46;;;;;;;1.52;0.82;;;;;;;-0.23;100.00;91532.81;5066085;28;20053;-79
2021/11/30 02:43:13;;;;;;;1.38;0.90;;;;;;;-0.35;100.00;91538.38;5065662;28;20416;-79
2021/11/30 02:45:40;;;;;;;3.63;2.90;;;;;;;-0.40;100.00;91545.72;5066340;28;20040;-79
2021/11/30 02:48:07;;;;;;;1.42;0.70;;;;;;;-0.52;100.00;91552.25;5065905;28;20510;-79
2021/11/30 02:50:40;;;;;;;2.10;1.20;;;;;;;-0.57;100.00;91547.72;5065686;28;20052;-79
2021/11/30 02:53:10;;;;;;;1.70;1.05;;;;;;;-0.56;100.00;91565.19;5066152;28;20110;-79
2021/11/30 02:55:38;;;;;;;2.00;1.27;;;;;;;-0.50;100.00;91568.75;5065971;28;20048;-79
2021/11/30 02:58:05;;;;;;;1.60;1.13;;;;;;;-0.42;100.00;91571.13;5065451;28;20051;-79
2021/11/30 03:00:32;;;;;;;1.98;1.38;;;;;;;-0.42;100.00;91567.81;5065443;28;20057;-80
2021/11/30 03:02:59;;;;;;;1.65;1.00;;;;;;;-0.48;100.00;91589.53;5065832;28;20051;-82
2021/11/30 03:05:26;;;;;;;1.90;1.27;;;;;;;-0.45;100.00;91588.38;5065572;28;20106;-80
2021/11/30 03:07:52;;;;;;;2.75;1.00;;;;;;;-0.36;100.00;91597.38;5065930;28;20052;-79
2021/11/30 03:10:20;;;;;;;2.25;1.40;;;;;;;-0.27;100.00;91605.59;5057490;28;20059;-81
2021/11/30 03:12:50;;;;;;;1.60;1.02;;;;;;;-0.30;100.00;91606.72;5055166;28;20072;-79
2021/11/30 03:15:19;;;;;;;2.05;1.15;;;;;;;-0.37;100.00;91612.69;5052632;28;20124;-80
2021/11/30 03:17:47;;;;;;;1.83;0.93;;;;;;;-0.69;100.00;91572.69;5053263;28;20048;-82
2021/11/30 03:20:16;;;;;;;1.25;0.60;;;;;;;-0.55;100.00;91604.59;5054743;28;20053;-81
2021/11/30 03:22:45;;;;;;;1.17;0.45;;;;;;;-0.89;100.00;91593.44;5055289;28;20063;-82
2021/11/30 03:25:13;;;;;;;1.20;0.73;;;;;;;-0.68;100.00;91612.81;5055037;28;20053;-82
2021/11/30 03:27:41;;;;;;;1.58;0.82;;;;;;;-0.87;100.00;91605.88;5054999;28;20136;-82
2021/11/30 03:30:11;;;;;;;3.55;2.22;;;;;;;-0.90;100.00;91618.81;5055143;28;20512;-82
2021/11/30 03:35:24;;;;;;;1.88;1.30;;;;;;;-0.64;100.00;91632.66;5055160;28;20067;-84
2021/11/30 03:37:51;;;;;;;2.72;1.67;;;;;;;-1.02;100.00;91584.00;5055336;28;20106;-84
2021/11/30 03:40:18;;;;;;;2.40;1.38;;;;;;;-0.89;100.00;91613.59;5055444;28;20476;-84
2021/11/30 03:42:46;;;;;;;3.85;1.80;;;;;;;-1.46;100.00;91588.22;5054429;28;20048;-83
2021/11/30 03:45:15;;;;;;;3.55;2.30;;;;;;;-1.02;100.00;91641.97;5054479;28;20053;-83
2021/11/30 03:47:42;;;;;;;2.50;1.65;;;;;;;-1.52;100.00;91578.88;5055219;28;20183;-82
2021/11/30 03:50:10;;;;;;;2.63;1.40;;;;;;;-1.17;100.00;91659.66;5054876;28;20052;-82
2021/11/30 03:52:37;;;;;;;2.35;1.40;;;;;;;-1.05;100.00;91656.69;5054330;28;20053;-82
2021/11/30 03:55:06;;;;;;;3.05;1.75;;;;;;;-0.95;100.00;91668.06;5054537;28;20047;-82
2021/11/30 03:57:33;;;;;;;3.20;1.90;;;;;;;-1.09;100.00;91662.09;5054555;28;20057;-82
2021/11/30 04:00:04;;;;;;;4.05;2.30;;;;;;;-1.19;100.00;91655.75;5054947;28;20048;-83
2021/11/30 04:02:33;;;;;;;3.03;1.80;;;;;;;-0.98;100.00;91672.66;5054899;28;20057;-82
2021/11/30 04:05:00;;;;;;;5.68;4.07;;;;;;;-1.57;100.00;91597.00;5054459;28;20052;-82
2021/11/30 04:07:26;;;;;;;4.05;2.28;;;;;;;-1.21;100.00;91664.28;5054437;28;20219;-84
2021/11/30 04:09:53;;;;;;;4.35;2.13;;;;;;;-1.02;100.00;91679.03;5060763;28;20056;-83
2021/11/30 04:12:20;;;;;;;3.50;1.73;;;;;;;-1.14;100.00;91668.59;5064871;28;20040;-83
2021/11/30 04:14:47;;;;;;;3.38;1.67;;;;;;;-0.91;100.00;91685.31;5064637;28;20477;-82
2021/11/30 04:17:14;;;;;;;3.22;2.13;;;;;;;-0.87;100.00;91653.78;5064566;28;20131;-85
2021/11/30 04:19:47;;;;;;;3.42;1.73;;;;;;;-0.50;100.00;91710.00;5064735;28;20479;-86
2021/11/30 04:22:26;;;;;;;2.88;2.13;;;;;;;-0.81;100.00;91641.25;5064539;28;20037;-87
2021/11/30 04:25:01;;;;;;;4.55;3.97;;;;;;;-0.12;100.00;91714.03;5064102;28;20045;-86
2021/11/30 04:27:42;;;;;;;3.78;2.38;;;;;;;-0.56;100.00;91656.00;5064283;28;20040;-87
2021/11/30 04:30:22;;;;;;;3.17;2.00;;;;;;;-0.69;100.00;91665.97;5063920;28;20082;-87
2021/11/30 04:32:53;;;;;;;5.57;3.50;;;;;;;-0.39;100.00;91733.97;5064098;28;20040;-85
2021/11/30 04:35:24;;;;;;;6.95;3.17;;;;;;;-0.43;100.00;91740.31;5066127;28;20045;-85
2021/11/30 04:38:01;;;;;;;5.93;3.95;;;;;;;-0.88;100.00;91682.47;5064083;28;20048;-87
2021/11/30 04:40:41;;;;;;;4.22;1.80;;;;;;;-1.43;100.00;91645.78;5063453;28;20427;-87
2021/11/30 04:43:20;;;;;;;3.92;2.13;;;;;;;-1.54;100.00;91701.63;5063832;28;20049;-87
2021/11/30 04:45:58;;;;;;;3.55;2.00;;;;;;;-1.39;100.00;91759.59;5064037;28;20048;-86
2021/11/30 04:48:32;;;;;;;7.07;3.42;;;;;;;-1.44;100.00;91754.28;5064070;28;20069;-87
2021/11/30 04:51:14;;;;;;;3.85;2.22;;;;;;;-1.49;100.00;91752.25;5063820;28;20049;-87
2021/11/30 04:53:50;;;;;;;4.85;2.65;;;;;;;-1.84;100.00;91704.94;5065154;28;20075;-86
2021/11/30 04:56:24;;;;;;;5.15;2.80;;;;;;;-1.85;100.00;91692.50;5065386;28;20052;-85
2021/11/30 04:58:55;;;;;;;6.40;3.65;;;;;;;-1.65;100.00;91711.19;5067283;28;20055;-88
2021/11/30 05:01:33;;;;;;;5.35;3.90;;;;;;;-1.14;100.00;91770.19;5067600;28;20646;-86
2021/11/30 05:04:01;;;;;;;5.22;3.40;;;;;;;-1.15;100.00;91783.72;5067845;28;20138;-85
2021/11/30 05:06:34;;;;;;;5.00;2.90;;;;;;;-1.61;100.00;91724.22;5068034;28;20036;-86
2021/11/30 05:09:03;;;;;;;6.80;3.90;;;;;;;-1.31;100.00;91768.81;5064249;28;20507;-85
2021/11/30 05:11:32;;;;;;;7.88;5.88;;;;;;;-1.38;100.00;91751.84;5057183;28;20045;-85
2021/11/30 05:13:59;;;;;;;7.22;4.43;;;;;;;-0.95;100.00;91808.41;5057327;28;20123;-84
2021/11/30 05:16:28;;;;;;;6.65;3.83;;;;;;;-0.85;100.00;91813.19;5053166;28;20130;-85
2021/11/30 05:19:03;;;;;;;5.80;3.28;;;;;;;-1.18;100.00;91758.09;5055672;28;20887;-85
2021/11/30 05:21:39;;;;;;;5.25;3.15;;;;;;;-1.32;100.00;91778.09;5057122;28;20055;-86
2021/11/30 05:24:09;;;;;;;4.25;2.60;;;;;;;-1.18;100.00;91801.72;5056432;28;20183;-84
2021/11/30 05:26:36;;;;;;;3.65;2.60;;;;;;;-1.38;100.00;91788.84;5057614;28;20072;-84
2021/11/30 05:29:04;;;;;;;3.03;2.15;;;;;;;-1.42;100.00;91803.53;5057873;28;20411;-84
2021/11/30 05:31:31;;;;;;;3.38;2.30;;;;;;;-1.41;100.00;91815.16;5057425;28;20053;-84
2021/11/30 05:34:01;;;;;;;4.40;2.88;;;;;;;-1.77;100.00;91776.28;5057354;28;20063;-85
2021/11/30 05:36:35;;;;;;;4.05;2.75;;;;;;;-1.12;100.00;91853.94;5057405;28;20139;-86
2021/11/30 05:39:05;;;;;;;6.55;3.28;;;;;;;-1.50;100.00;91809.44;5056836;28;20048;-85
2021/11/30 05:41:35;;;;;;;3.75;2.63;;;;;;;-1.26;100.00;91875.66;5056685;28;20535;-86
2021/11/30 05:44:04;;;;;;;4.97;3.75;;;;;;;-1.77;100.00;91820.81;5057159;28;20584;-85
2021/11/30 05:46:35;;;;;;;4.38;3.22;;;;;;;-1.71;100.00;91836.97;5056620;28;20048;-86
2021/11/30 05:49:02;;;;;;;5.88;3.90;;;;;;;-1.48;100.00;91892.38;5057446;28;20790;-85
2021/11/30 05:51:30;;;;;;;6.93;5.00;;;;;;;-1.28;100.00;91900.25;5056448;28;20080;-86
2021/11/30 05:54:04;;;;;;;8.80;5.00;;;;;;;-1.39;100.00;91848.50;5057326;28;20369;-87
2021/11/30 05:56:33;;;;;;;7.80;4.85;;;;;;;-1.10;100.00;91897.38;5056366;28;21242;-87
2021/11/30 05:59:01;;;;;;;5.97;3.50;;;;;;;-1.64;100.00;91861.31;5056968;28;20144;-86
2021/11/30 06:01:31;;;;;;;6.60;4.63;;;;;;;-1.16;100.00;91908.16;5057185;28;20431;-86
2021/11/30 06:04:02;;;;;;;5.88;3.30;;;;;;;-1.28;100.00;91925.44;5057205;28;20055;-86
2021/11/30 06:06:32;;;;;;;7.63;4.80;;;;;;;-1.05;100.00;91923.81;5056114;28;20056;-86
2021/11/30 06:09:02;;;;;;;7.97;4.38;;;;;;;-1.04;100.00;91953.91;5055708;28;20056;-85
2021/11/30 06:11:30;;;;;;;5.72;4.15;;;;;;;-1.01;100.00;91951.06;5056314;28;20105;-86
2021/11/30 06:13:57;;;;;;;5.97;4.65;;;;;;;-1.14;100.00;91934.00;5056404;28;20055;-86
2021/11/30 06:16:25;;;;;;;5.03;3.80;;;;;;;-1.32;100.00;91954.44;5056140;28;20105;-86
2021/11/30 06:18:53;;;;;;;6.00;4.68;;;;;;;-1.25;100.00;91969.66;5056284;28;20500;-86
2021/11/30 06:21:20;;;;;;;6.65;4.45;;;;;;;-1.32;100.00;91969.53;5056630;28;20077;-85
2021/11/30 06:23:49;;;;;;;7.78;5.68;;;;;;;-1.56;100.00;91962.94;5056237;28;20054;-85
2021/11/30 06:26:18;;;;;;;7.20;5.28;;;;;;;-1.99;100.00;91898.66;5055284;28;20053;-85
2021/11/30 06:28:45;;;;;;;8.88;5.68;;;;;;;-2.02;100.00;91944.28;5055987;28;20063;-85
2021/11/30 06:31:13;;;;;;;8.40;5.70;;;;;;;-2.44;100.00;91909.22;5056600;28;20179;-84
2021/11/30 06:33:41;;;;;;;10.75;7.07;;;;;;;-1.77;100.00;91997.81;5056081;28;20475;-84
2021/11/30 06:36:08;;;;;;;10.02;6.30;;;;;;;-1.85;100.00;91967.63;5055977;28;20441;-83
2021/11/30 06:38:35;;;;;;;9.90;6.97;;;;;;;-1.48;100.00;91996.41;5055751;28;20477;-84
2021/11/30 06:41:02;;;;;;;13.68;8.98;;;;;;;-1.59;100.00;91964.03;5055911;28;21074;-83
2021/11/30 06:43:30;;;;;;;8.93;6.18;;;;;;;-1.98;100.00;91959.84;5056111;28;20519;-83
2021/11/30 06:45:57;;;;;;;10.45;6.88;;;;;;;-2.14;100.00;91951.41;5055663;28;20730;-83
2021/11/30 06:48:24;;;;;;;10.50;7.32;;;;;;;-1.56;100.00;92031.72;5056069;28;20056;-83
2021/11/30 06:50:51;;;;;;;12.38;7.88;;;;;;;-1.98;100.00;91980.78;5056095;28;20078;-82
2021/11/30 06:53:19;;;;;;;11.57;8.75;;;;;;;-1.34;100.00;92029.41;5055789;28;20138;-82
2021/11/30 06:55:46;;;;;;;23.50;12.10;;;;;;;-1.61;100.00;92031.41;5055522;28;20052;-83
2021/11/30 06:58:13;;;;;;;10.80;7.18;;;;;;;-1.28;100.00;92048.09;5055987;28;20054;-82
2021/11/30 07:00:41;;;;;;;10.27;7.05;;;;;;;-1.32;100.00;92055.19;5056042;28;20387;-82
2021/11/30 07:03:08;;;;;;;10.88;8.00;;;;;;;-1.42;100.00;92052.09;5055558;28;20139;-82
2021/11/30 07:05:37;;;;;;;13.48;8.88;;;;;;;-1.63;100.00;92011.44;5054803;28;20060;-83
2021/11/30 07:08:18;;;;;;;9.50;6.57;;;;;;;-1.06;100.00;92081.84;5055366;28;20045;-82
2021/11/30 07:10:48;;;;;;;9.27;6.50;;;;;;;-1.75;100.00;92016.03;5054799;28;20060;-82
2021/11/30 07:13:26;;;;;;;11.23;6.75;;;;;;;-0.99;100.00;92102.09;5066593;28;20538;-83
2021/11/30 07:15:57;;;;;;;11.77;6.60;;;;;;;-1.26;100.00;92109.16;5050357;28;20077;-82
2021/11/30 07:18:24;;;;;;;7.78;6.03;;;;;;;-1.46;100.00;92088.63;5048406;28;20041;-82
2021/11/30 07:20:52;;;;;;;10.00;6.93;;;;;;;-1.62;100.00;92055.81;5049504;28;20474;-83
2021/11/30 07:23:19;;;;;;;9.55;7.43;;;;;;;-1.55;100.00;92108.03;5049852;28;20439;-81
2021/11/30 07:25:48;;;;;;;10.10;6.57;;;;;;;-1.53;100.00;92103.63;5049095;28;20053;-81
2021/11/30 07:28:15;;;;;;;10.23;6.18;;;;;;;-1.49;100.00;92120.78;5049159;28;20049;-82
2021/11/30 07:30:42;;;;;;;8.93;6.15;;;;;;;-1.36;100.00;92121.97;5048907;28;20504;-81
2021/11/30 07:33:11;;;;;;;16.30;8.85;;;;;;;-1.21;100.00;92125.38;5049519;28;20076;-82
2021/11/30 07:35:39;;;;;;;13.68;8.18;;;;;;;-1.46;100.00;92137.28;5049098;28;20053;-82
2021/11/30 07:38:06;;;;;;;14.27;8.90;;;;;;;-2.23;100.00;92037.94;5049026;28;20496;-84
2021/11/30 07:40:33;;;;;;;22.55;14.27;;;;;;;-1.46;100.00;92132.25;5049726;28;20089;-83
2021/11/30 07:43:00;;;;;;;13.55;9.63;;;;;;;-1.67;100.00;92092.50;5050204;28;20441;-85
2021/11/30 07:45:27;;;;;;;16.25;11.10;;;;;;;-1.89;100.00;92087.22;5049441;28;20056;-84
2021/11/30 07:47:54;;;;;;;11.82;7.38;;;;;;;-1.88;100.00;92087.06;5049381;28;20459;-84
2021/11/30 07:50:22;;;;;;;17.73;12.18;;;;;;;-1.30;100.00;92153.28;5049171;28;20052;-84
2021/11/30 07:52:49;;;;;;;15.13;10.07;;;;;;;-1.26;100.00;92132.63;5049452;28;20045;-84
2021/11/30 07:55:18;;;;;;;13.95;9.02;;;;;;;-1.18;100.00;92182.22;5049446;28;20144;-85
2021/11/30 07:57:46;;;;;;;12.95;9.05;;;;;;;-1.43;100.00;92164.66;5049164;28;20055;-85
2021/11/30 08:00:18;;;;;;;16.38;10.98;;;;;;;-1.33;100.00;92178.81;5049356;28;20057;-86
2021/11/30 08:02:46;;;;;;;16.90;9.95;;;;;;;-2.00;100.00;92125.31;5049126;28;20428;-86
2021/11/30 08:05:14;;;;;;;14.48;9.60;;;;;;;-1.67;100.00;92193.22;5048907;28;20053;-85
2021/11/30 08:07:43;;;;;;;17.42;11.52;;;;;;;-1.68;100.00;92197.47;5049441;28;20055;-85
2021/11/30 08:10:14;;;;;;;16.20;10.93;;;;;;;-1.82;100.00;92168.69;5078226;28;20062;-85
2021/11/30 08:12:42;;;;;;;24.00;13.00;;;;;;;-1.96;100.00;92157.56;5089368;28;20549;-85
2021/11/30 08:15:10;;;;;;;15.15;9.75;;;;;;;-1.84;100.00;92215.91;5089368;28;20067;-85
2021/11/30 08:17:37;;;;;;;13.43;9.57;;;;;;;-2.51;100.00;92112.00;5089133;28;20044;-84
2021/11/30 08:20:06;;;;;;;22.48;14.18;;;;;;;-2.45;100.00;92155.84;5089016;28;20089;-82
2021/11/30 08:22:33;;;;;;;12.80;8.35;;;;;;;-1.83;100.00;92199.84;5089334;28;20464;-83
2021/11/30 08:25:02;;;;;;;17.40;11.50;;;;;;;-1.83;100.00;92209.94;5089337;28;20052;-83
2021/11/30 08:27:29;;;;;;;18.55;12.95;;;;;;;-1.43;100.00;92241.97;5088946;28;20087;-83
2021/11/30 08:29:56;;;;;;;16.90;11.88;;;;;;;-1.69;100.00;92203.47;5088936;28;20048;-86
2021/11/30 08:32:23;;;;;;;19.33;11.70;;;;;;;-1.52;100.00;92205.94;5092349;28;20556;-84
2021/11/30 08:34:52;;;;;;;12.57;8.93;;;;;;;-2.07;100.00;92162.91;5093297;28;20055;-84
2021/11/30 08:37:22;;;;;;;14.80;9.85;;;;;;;-1.69;100.00;92236.19;5093062;28;20071;-84
2021/11/30 08:39:49;;;;;;;18.88;11.88;;;;;;;-1.45;100.00;92259.00;5093188;28;20048;-84
2021/11/30 08:42:19;;;;;;;16.25;10.88;;;;;;;-1.89;100.00;92188.69;5093130;28;20138;-83
2021/11/30 08:44:48;;;;;;;14.10;10.98;;;;;;;-1.38;100.00;92239.75;5092879;28;20051;-83
2021/11/30 08:47:17;;;;;;;16.92;12.00;;;;;;;-1.44;100.00;92263.84;5092941;28;20056;-83
2021/11/30 08:49:44;;;;;;;12.38;9.13;;;;;;;-1.45;100.00;92269.06;5082627;28;20584;-83
2021/11/30 08:52:16;;;;;;;16.88;11.07;;;;;;;-1.66;100.00;92250.97;5070453;28;20411;-84
2021/11/30 08:54:43;;;;;;;15.10;10.52;;;;;;;-1.42;100.00;92283.84;5070927;28;20456;-84
2021/11/30 08:57:11;;;;;;;14.23;10.45;;;;;;;-2.11;100.00;92232.91;5071806;28;20482;-84
2021/11/30 08:59:39;;;;;;;15.85;10.00;;;;;;;-1.65;100.00;92270.19;5072084;28;20045;-84
2021/11/30 09:02:07;;;;;;;14.90;10.95;;;;;;;-1.82;100.00;92304.63;5071722;28;20056;-83
2021/11/30 09:04:34;;;;;;;15.75;11.05;;;;;;;-1.70;100.00;92274.91;5072296;28;20051;-84
2021/11/30 09:07:01;;;;;;;14.63;10.10;;;;;;;-1.65;100.00;92261.84;5071899;28;20057;-85
2021/11/30 09:09:28;;;;;;;14.05;9.27;;;;;;;-1.51;100.00;92293.94;5068283;28;20075;-84
2021/11/30 09:11:56;;;;;;;13.82;9.65;;;;;;;-1.40;100.00;92305.41;5058140;28;20055;-85
2021/11/30 09:14:23;;;;;;;12.75;9.18;;;;;;;-1.42;100.00;92281.31;5062367;28;20053;-85
2021/11/30 09:16:53;;;;;;;14.00;10.27;;;;;;;-1.09;100.00;92314.81;5060452;28;20057;-84
2021/11/30 09:19:20;;;;;;;16.85;10.98;;;;;;;-1.45;100.00;92316.91;5053234;28;20518;-85
2021/11/30 09:21:48;;;;;;;15.25;9.88;;;;;;;-1.84;100.00;92288.13;5067552;28;20416;-84
2021/11/30 09:24:15;;;;;;;12.55;8.80;;;;;;;-1.59;100.00;92319.13;5052091;28;20135;-84
2021/11/30 09:26:42;;;;;;;15.60;9.85;;;;;;;-1.25;100.00;92299.72;5049323;28;20053;-83
2021/11/30 09:29:12;;;;;;;14.38;9.55;;;;;;;-1.06;100.00;92340.66;5049816;28;20041;-82
2021/11/30 09:31:39;;;;;;;14.02;9.80;;;;;;;-1.09;100.00;92329.16;5051983;28;20402;-82
2021/11/30 09:34:08;;;;;;;12.15;8.57;;;;;;;-0.74;100.00;92339.00;5051736;28;20089;-82
2021/11/30 09:36:35;;;;;;;12.27;9.00;;;;;;;-0.70;100.00;92343.56;5051514;28;20531;-82
2021/11/30 09:39:06;;;;;;;12.02;8.32;;;;;;;-1.33;100.00;92255.19;5051717;28;20804;-83
2021/11/30 09:41:34;;;;;;;14.65;9.63;;;;;;;-1.27;100.00;92271.38;5051535;28;20403;-82
2021/11/30 09:44:01;;;;;;;13.57;8.63;;;;;;;-0.73;100.00;92348.13;5059671;28;20048;-83
2021/11/30 09:46:43;;;;;;;11.38;8.50;;;;;;;-0.63;100.00;92348.75;5071126;28;20048;-82
2021/11/30 09:49:13;;;;;;;13.38;10.02;;;;;;;-0.76;100.00;92350.97;5070429;28;20567;-83
2021/11/30 09:51:40;;;;;;;14.10;10.45;;;;;;;-0.71;100.00;92296.59;5071261;28;20404;-83
2021/11/30 09:54:07;;;;;;;14.98;11.20;;;;;;;-0.45;100.00;92338.44;5071748;28;20048;-83
2021/11/30 09:56:33;;;;;;;12.10;9.40;;;;;;;-0.69;100.00;92364.53;5071246;28;20139;-83
2021/11/30 09:59:00;;;;;;;13.77;9.48;;;;;;;-0.64;100.00;92359.78;5071249;28;20067;-82
2021/11/30 10:01:27;;;;;;;12.25;8.95;;;;;;;-0.64;100.00;92374.13;5071209;28;20055;-82
2021/11/30 10:03:54;;;;;;;13.35;9.48;;;;;;;-0.59;100.00;92375.22;5071190;28;20076;-82
2021/11/30 10:06:23;;;;;;;11.57;7.20;;;;;;;-0.65;100.00;92362.47;5070951;28;20059;-82
2021/11/30 10:08:54;;;;;;;11.18;8.02;;;;;;;-0.68;100.00;92379.47;5070772;28;20057;-84
2021/11/30 10:11:34;;;;;;;14.57;9.52;;;;;;;-0.59;100.00;92379.47;5070673;28;20135;-80
2021/11/30 10:14:13;;;;;;;10.00;7.38;;;;;;;-1.29;100.00;92353.91;5071392;28;20096;-80
2021/11/30 10:16:41;;;;;;;11.25;7.65;;;;;;;-0.61;100.00;92389.72;5070486;28;20055;-80
2021/11/30 10:19:08;;;;;;;11.95;7.75;;;;;;;-0.76;100.00;92397.16;5071000;28;20070;-80
2021/11/30 10:21:37;;;;;;;10.23;7.18;;;;;;;-0.83;100.00;92384.41;5070549;28;20496;-83
2021/11/30 10:24:06;;;;;;;10.27;6.93;;;;;;;-0.84;100.00;92397.16;5070491;28;20525;-83
2021/11/30 10:26:35;;;;;;;11.27;7.65;;;;;;;-0.79;100.00;92399.22;5070672;28;20048;-81
2021/11/30 10:29:06;;;;;;;11.32;8.57;;;;;;;-0.56;100.00;92396.78;5070440;28;20055;-82
2021/11/30 10:31:36;;;;;;;9.77;7.75;;;;;;;-0.84;100.00;92384.56;5070446;28;20045;-82
2021/11/30 10:34:11;;;;;;;10.40;7.00;;;;;;;-0.69;100.00;92412.44;5070271;28;20045;-82
2021/11/30 10:36:52;;;;;;;10.65;7.22;;;;;;;-0.62;100.00;92405.81;5070066;28;20052;-82
2021/11/30 10:39:21;;;;;;;11.90;7.72;;;;;;;-0.72;100.00;92395.91;5070575;28;20439;-82
2021/11/30 10:41:51;;;;;;;11.88;7.28;;;;;;;-0.90;100.00;92423.00;5070193;28;20530;-82
2021/11/30 10:44:28;;;;;;;12.18;7.63;;;;;;;-0.69;100.00;92417.50;5070449;28;20052;-82
2021/11/30 10:47:08;;;;;;;11.10;7.35;;;;;;;-0.76;100.00;92422.38;5070379;28;20044;-82
2021/11/30 10:49:36;;;;;;;13.55;7.97;;;;;;;-0.70;100.00;92394.00;5070108;28;20051;-82
2021/11/30 10:52:04;;;;;;;13.27;9.02;;;;;;;-0.57;100.00;92408.63;5070178;28;20063;-82
2021/11/30 10:54:36;;;;;;;12.23;9.38;;;;;;;-0.22;100.00;92403.31;5069656;28;20126;-82
2021/11/30 10:57:04;;;;;;;10.85;7.38;;;;;;;-0.08;100.00;92417.00;5069767;28;20056;-82
2021/11/30 10:59:31;;;;;;;10.60;7.55;;;;;;;-0.14;100.00;92410.06;5069664;28;20044;-82
2021/11/30 11:01:58;;;;;;;11.25;7.82;;;;;;;0.20;100.00;92405.66;5069868;28;20044;-82
2021/11/30 11:04:29;;;;;;;11.80;8.10;;;;;;;0.23;100.00;92416.19;5069412;28;20044;-82
2021/11/30 11:07:09;;;;;;;12.68;9.38;;;;;;;0.25;100.00;92416.03;5069549;28;20052;-82
2021/11/30 11:09:43;;;;;;;10.82;8.18;;;;;;;0.67;100.00;92419.09;5069956;28;20060;-82
2021/11/30 11:12:11;;;;;;;11.68;8.02;;;;;;;0.77;100.00;92417.13;5069717;28;20551;-82
2021/11/30 11:14:46;;;;;;;11.60;8.27;;;;;;;0.29;100.00;92429.13;5070303;28;20127;-82
2021/11/30 11:17:27;;;;;;;10.63;8.15;;;;;;;0.52;100.00;92432.44;5068912;28;20066;-82
2021/11/30 11:19:54;;;;;;;11.43;7.82;;;;;;;0.31;100.00;92417.91;5067560;28;20518;-82
2021/11/30 11:22:25;;;;;;;10.35;7.43;;;;;;;0.32;100.00;92424.53;5064910;28;20051;-82
2021/11/30 11:24:53;;;;;;;10.60;7.25;;;;;;;-0.04;100.00;92437.66;5067195;28;20066;-82
2021/11/30 11:27:31;;;;;;;9.07;6.35;;;;;;;-0.27;100.00;92436.59;5068772;28;20052;-81
2021/11/30 11:29:59;;;;;;;12.13;7.82;;;;;;;-0.28;100.00;92437.56;5067148;28;20541;-82
2021/11/30 11:32:26;;;;;;;10.15;7.13;;;;;;;-0.82;100.00;92438.16;5068637;28;20052;-82
2021/11/30 11:34:54;;;;;;;10.98;7.65;;;;;;;-0.53;100.00;92439.34;5068974;28;20197;-82
2021/11/30 11:37:23;;;;;;;11.43;8.40;;;;;;;-0.38;100.00;92414.25;5068560;28;20044;-82